METAR Formatted Surface Weather Observation
Issued by NWS

Home | Current Version | Previous Version | Text Only | Print | Product List | Glossary On
Versions: 1 2 3 4 5 6 7 8 9 10 11 12 13 14 15 16 17 18
000
SAUS42 KTAE 221340
MTR1J0
METAR K1J0 221258Z AUTO 06005KT 10SM CLR 20/19 A3016 RMK AO2 SLP169
T02000194 TSNO $



USA.gov is the U.S. government's official web portal to all federal, state and local government web resources and services.